createdAt,value
2018-07-21T00:03:04.860Z,4.76
2018-07-21T00:08:59.860Z,4.86
2018-07-21T00:14:54.881Z,4.71
2018-07-21T00:20:49.847Z,4.01
2018-07-21T00:26:44.903Z,4.41
2018-07-21T00:32:39.909Z,4.55
2018-07-21T00:38:34.893Z,4.49
2018-07-21T00:44:29.883Z,4.66
2018-07-21T00:50:24.927Z,5.3
2018-07-21T00:56:19.879Z,5.25
2018-07-21T01:02:14.891Z,4.63
2018-07-21T01:08:09.976Z,4.36
2018-07-21T01:14:04.878Z,5.1
2018-07-21T01:19:59.917Z,4.5
2018-07-21T01:25:54.987Z,5.18
2018-07-21T01:31:49.887Z,4.43
2018-07-21T01:37:44.900Z,4.58
2018-07-21T01:43:39.896Z,4.92
2018-07-21T01:49:34.903Z,5.19
2018-07-21T01:55:29.948Z,4.15
2018-07-21T02:01:24.950Z,4.51
2018-07-21T02:07:19.934Z,4.26
2018-07-21T02:13:14.914Z,4.46
2018-07-21T02:19:09.944Z,4.81
2018-07-21T02:25:04.929Z,5.31
2018-07-21T02:30:59.946Z,5.19
2018-07-21T02:36:54.938Z,6.01
2018-07-21T02:42:49.954Z,5.8
2018-07-21T02:48:44.946Z,5.49
2018-07-21T02:54:39.960Z,5.12
2018-07-21T03:00:34.935Z,5.84
2018-07-21T03:06:29.970Z,5.72
2018-07-21T03:12:24.960Z,5.52
2018-07-21T03:18:19.965Z,5.6
2018-07-21T03:24:14.970Z,5.7
2018-07-21T03:30:09.982Z,6.06
2018-07-21T03:36:04.984Z,5.58
2018-07-21T03:41:59.975Z,5.21
2018-07-21T03:47:54.998Z,5.32
2018-07-21T03:53:49.984Z,5
2018-07-21T03:59:45.703Z,5.59
2018-07-21T04:05:40.010Z,5.53
2018-07-21T04:11:35.010Z,5.99
2018-07-21T04:17:30.006Z,5.87
2018-07-21T04:23:25.013Z,5.63
2018-07-21T04:29:20.002Z,5.66
2018-07-21T04:35:15.020Z,5.49
2018-07-21T04:41:10.022Z,6.61
2018-07-21T04:47:04.998Z,6.22
2018-07-21T04:52:59.997Z,6.64
2018-07-21T04:58:55.051Z,6.2
2018-07-21T05:04:50.035Z,6.54
2018-07-21T05:10:45.033Z,6.25
2018-07-21T05:16:40.012Z,6.36
2018-07-21T05:22:35.037Z,5.96
2018-07-21T05:28:30.031Z,6.12
2018-07-21T05:34:25.025Z,5.97
2018-07-21T05:40:20.035Z,6.85
2018-07-21T05:46:15.036Z,6.38
2018-07-21T05:52:10.046Z,6.81
2018-07-21T05:58:05.098Z,5.72
2018-07-21T06:04:00.041Z,6.69
2018-07-21T06:09:55.054Z,6.66
2018-07-21T06:15:50.099Z,6.93
2018-07-21T06:21:45.046Z,6.66
2018-07-21T06:27:40.089Z,7.41
2018-07-21T06:33:35.096Z,5.78
2018-07-21T06:39:30.094Z,7.09
2018-07-21T06:45:25.113Z,7.17
2018-07-21T06:51:20.070Z,7.14
2018-07-21T06:57:15.124Z,5.71
2018-07-21T07:03:10.137Z,6.4
2018-07-21T07:09:05.169Z,6.62
2018-07-21T07:15:00.091Z,7.69
2018-07-21T07:20:55.106Z,7.29
2018-07-21T07:26:50.120Z,6.92
2018-07-21T07:32:45.098Z,6.67
2018-07-21T07:38:40.109Z,6.29
2018-07-21T07:44:35.194Z,7.06
2018-07-21T07:50:30.119Z,5.86
2018-07-21T07:56:25.171Z,7.07
2018-07-21T08:02:20.141Z,5.62
2018-07-21T08:08:15.123Z,5.46
2018-07-21T08:14:10.183Z,5.37
2018-07-21T08:20:05.141Z,6
2018-07-21T08:26:00.199Z,5.41
2018-07-21T08:31:55.141Z,4.54
2018-07-21T08:37:50.116Z,4.98
2018-07-21T08:43:45.147Z,5.19
2018-07-21T08:49:40.155Z,5.27
2018-07-21T08:55:35.214Z,5.22
2018-07-21T09:01:30.176Z,5.26
2018-07-21T09:07:25.142Z,6.07
2018-07-21T09:13:20.147Z,5.35
2018-07-21T09:19:15.162Z,6.72
2018-07-21T09:25:10.206Z,4.93
2018-07-21T09:31:05.169Z,5.11
2018-07-21T09:37:00.171Z,8.82
2018-07-21T09:42:55.174Z,6.09
2018-07-21T09:48:50.183Z,5.3
2018-07-21T09:54:45.208Z,5.64
2018-07-21T10:00:40.186Z,5.31
2018-07-21T10:06:35.189Z,4.99
2018-07-21T10:12:30.210Z,5.12
2018-07-21T10:18:25.204Z,4.95
2018-07-21T10:24:20.227Z,5.04
2018-07-21T10:30:15.303Z,5.15
2018-07-21T10:36:10.241Z,6.04
2018-07-21T10:42:05.218Z,4.73
2018-07-21T10:48:00.205Z,4.47
2018-07-21T10:53:55.237Z,4.72
2018-07-21T10:59:50.224Z,6.46
2018-07-21T11:05:45.218Z,4.02
2018-07-21T11:11:40.312Z,3.81
2018-07-21T11:17:35.232Z,4.12
2018-07-21T11:23:30.236Z,4.99
2018-07-21T11:29:25.283Z,4.54
2018-07-21T11:35:20.457Z,4.32
2018-07-21T11:41:15.251Z,5.07
2018-07-21T11:47:10.260Z,5.56
2018-07-21T11:53:05.267Z,5.55
2018-07-21T12:04:55.289Z,5.38
2018-07-21T12:10:55.291Z,5.47
2018-07-21T12:16:45.261Z,6.33
2018-07-21T12:22:40.260Z,5.12
2018-07-21T12:28:35.333Z,5.63
2018-07-21T12:34:34.372Z,6.77
2018-07-21T12:40:25.311Z,6.08
2018-07-21T12:46:20.295Z,5.39
2018-07-21T12:52:15.296Z,8.2
2018-07-21T12:58:10.311Z,5.76
2018-07-21T13:04:05.294Z,6.12
2018-07-21T13:10:00.315Z,6.75
2018-07-21T13:15:55.298Z,5.9
2018-07-21T13:21:50.359Z,7.27
2018-07-21T13:27:45.314Z,6.53
2018-07-21T13:33:40.327Z,7.63
2018-07-21T13:39:35.309Z,6.38
2018-07-21T13:45:30.322Z,6.49
2018-07-21T13:51:25.333Z,6.4
2018-07-21T13:57:20.318Z,7.1
2018-07-21T14:03:15.337Z,6.53
2018-07-21T14:09:10.353Z,6.4
2018-07-21T14:15:05.330Z,6.02
2018-07-21T14:21:00.342Z,11.13
2018-07-21T14:26:55.351Z,6.37
2018-07-21T14:33:09.099Z,6.86
2018-07-21T14:38:45.361Z,6.04
2018-07-21T14:44:40.360Z,8.26
2018-07-21T14:50:35.363Z,9.97
2018-07-21T14:56:30.355Z,8.86
2018-07-21T15:02:25.365Z,9.44
2018-07-21T15:08:20.369Z,11.81
2018-07-21T15:14:15.374Z,7.7
2018-07-21T15:20:10.434Z,6.54
2018-07-21T15:26:05.381Z,14.2
2018-07-21T15:32:00.385Z,5.56
2018-07-21T15:37:55.432Z,4.51
2018-07-21T15:43:50.443Z,9.1
2018-07-21T15:49:45.464Z,8.95
2018-07-21T15:55:40.408Z,7.24
2018-07-21T16:01:35.518Z,9.23
2018-07-21T16:07:30.437Z,7.84
2018-07-21T16:13:25.408Z,8.38
2018-07-21T16:19:20.421Z,9.24
2018-07-21T16:25:15.435Z,6.96
2018-07-21T16:31:10.437Z,7.93
2018-07-21T16:37:05.421Z,9.3
2018-07-21T16:43:00.437Z,5.54
2018-07-21T16:48:55.436Z,4.93
2018-07-21T16:54:50.443Z,8.24
2018-07-21T17:00:45.452Z,6.02
2018-07-21T17:06:40.470Z,7.94
2018-07-21T17:12:35.446Z,16.7
2018-07-21T17:18:30.442Z,8.25
2018-07-21T17:24:25.472Z,8.62
2018-07-21T17:30:20.464Z,8.46
2018-07-21T17:36:15.493Z,7.05
2018-07-21T17:42:10.519Z,6.3
2018-07-21T17:48:05.468Z,9.44
2018-07-21T17:54:00.469Z,9.18
2018-07-21T17:59:55.500Z,22.04
2018-07-21T18:05:50.495Z,20.16
2018-07-21T18:11:45.485Z,16.47
2018-07-21T18:17:40.488Z,16.23
2018-07-21T18:23:35.539Z,8.23
2018-07-21T18:29:30.526Z,5.74
2018-07-21T18:35:25.539Z,11.11
2018-07-21T18:41:20.485Z,18.95
2018-07-21T18:47:15.496Z,17.93
2018-07-21T18:53:10.517Z,13.83
2018-07-21T18:59:05.540Z,15.97
2018-07-21T19:05:00.541Z,12.44
2018-07-21T19:10:55.512Z,8.23
2018-07-21T19:16:50.557Z,6.03
2018-07-21T19:22:45.541Z,8.59
2018-07-21T19:28:40.542Z,5.85
2018-07-21T19:34:35.525Z,6.92
2018-07-21T19:40:30.531Z,8.44
2018-07-21T19:46:25.523Z,5.98
2018-07-21T19:52:20.569Z,9.79
2018-07-21T19:58:15.634Z,11.31
2018-07-21T20:04:10.659Z,6.47
2018-07-21T20:10:05.593Z,6.3
2018-07-21T20:16:00.556Z,5.67
2018-07-21T20:21:55.584Z,5.59
2018-07-21T20:27:50.585Z,5.98
2018-07-21T20:33:45.547Z,5.73
2018-07-21T20:39:40.653Z,5.7
2018-07-21T20:45:35.601Z,6.23
2018-07-21T20:51:30.640Z,5.45
2018-07-21T20:57:25.594Z,6.43
2018-07-21T21:03:20.610Z,6.39
2018-07-21T21:09:15.604Z,6
2018-07-21T21:15:10.603Z,6.19
2018-07-21T21:21:05.593Z,5.98
2018-07-21T21:27:00.595Z,6.49
2018-07-21T21:32:55.609Z,6.42
2018-07-21T21:38:50.606Z,6.81
2018-07-21T21:44:45.624Z,6.24
2018-07-21T21:50:40.613Z,7.39
2018-07-21T21:56:35.654Z,6.04
2018-07-21T22:02:30.637Z,5.82
2018-07-21T22:08:25.613Z,6.13
2018-07-21T22:14:20.767Z,7.89
2018-07-21T22:20:15.625Z,7.37
2018-07-21T22:26:10.705Z,6.01
2018-07-21T22:32:05.629Z,6.78
2018-07-21T22:38:00.665Z,7.46
2018-07-21T22:43:55.641Z,6.46
2018-07-21T22:49:50.663Z,6.84
2018-07-21T22:55:45.625Z,6.79
2018-07-21T23:01:40.654Z,6.97
2018-07-21T23:07:35.672Z,7.41
2018-07-21T23:13:30.669Z,7.29
2018-07-21T23:19:25.674Z,6.47
2018-07-21T23:25:20.651Z,6.51
2018-07-21T23:31:15.690Z,7.11
2018-07-21T23:37:10.672Z,6.32
2018-07-21T23:43:05.686Z,6.39
2018-07-21T23:49:00.671Z,7.03
2018-07-21T23:54:55.683Z,6.85
